Time;durP1;ratioP1;P1;durP2;ratioP2;P2;SDS_P1;SDS_P2;PMS_P1;PMS_P2;Temp;Humidity;BMP_temperature;BMP_pressure;BME280_temperature;BME280_humidity;BME280_pressure;Samples;Min_cycle;Max_cycle;Signal;HPM_P1;HPM_P2
2024/01/27 00:00:15;;;;;;;24.38;4.57;;;4.40;99.90;;;;;;5021357;28;20498;-68
2024/01/27 00:02:41;;;;;;;23.23;3.28;;;4.20;99.90;;;;;;5022478;28;20053;-67
2024/01/27 00:05:08;;;;;;;31.02;3.47;;;4.20;99.90;;;;;;5021410;28;20072;-66
2024/01/27 00:07:33;;;;;;;25.17;3.13;;;4.20;99.90;;;;;;5021559;28;20689;-67
2024/01/27 00:09:59;;;;;;;27.90;3.58;;;4.20;99.90;;;;;;5016321;28;20045;-66
2024/01/27 00:12:26;;;;;;;28.10;3.38;;;4.20;99.90;;;;;;5020752;28;20061;-67
2024/01/27 00:14:53;;;;;;;25.30;2.88;;;4.20;99.90;;;;;;5019276;28;20048;-67
2024/01/27 00:17:23;;;;;;;18.63;2.60;;;4.20;99.90;;;;;;5021667;28;20049;-66
2024/01/27 00:19:53;;;;;;;22.70;4.20;;;4.20;99.90;;;;;;5020424;28;20061;-66
2024/01/27 00:22:20;;;;;;;23.17;3.42;;;4.40;99.90;;;;;;5020571;28;20041;-67
2024/01/27 00:24:46;;;;;;;23.83;3.55;;;4.20;99.90;;;;;;5020377;28;20886;-66
2024/01/27 00:27:12;;;;;;;26.75;3.53;;;4.20;99.90;;;;;;5022723;28;20033;-66
2024/01/27 00:29:38;;;;;;;21.15;3.08;;;4.10;99.90;;;;;;5019636;28;20045;-66
2024/01/27 00:32:03;;;;;;;27.55;3.60;;;4.10;99.90;;;;;;5022704;28;20053;-65
2024/01/27 00:34:29;;;;;;;27.58;3.55;;;4.10;99.90;;;;;;5019915;28;20054;-66
2024/01/27 00:36:55;;;;;;;20.10;3.58;;;4.10;99.90;;;;;;5022083;28;20669;-66
2024/01/27 00:39:22;;;;;;;23.95;3.35;;;4.10;99.90;;;;;;5020473;28;20041;-67
2024/01/27 00:41:48;;;;;;;26.27;3.05;;;4.10;99.90;;;;;;5019787;28;20129;-66
2024/01/27 00:44:14;;;;;;;24.90;3.17;;;4.10;99.90;;;;;;5019723;28;20045;-66
2024/01/27 00:46:39;;;;;;;27.33;3.80;;;4.10;99.90;;;;;;5018454;28;20046;-66
2024/01/27 00:49:05;;;;;;;29.52;3.47;;;4.10;99.90;;;;;;5021949;28;20045;-67
2024/01/27 00:51:31;;;;;;;23.40;3.53;;;4.00;99.90;;;;;;5022130;28;20107;-66
2024/01/27 00:53:56;;;;;;;29.35;3.42;;;4.00;99.90;;;;;;5034817;28;20045;-66
2024/01/27 00:56:22;;;;;;;23.10;2.88;;;4.00;99.90;;;;;;5020012;28;20037;-66
2024/01/27 00:58:48;;;;;;;24.02;3.15;;;4.00;99.90;;;;;;5019715;28;20057;-66
2024/01/27 01:01:14;;;;;;;23.70;3.08;;;4.00;99.90;;;;;;5021250;28;20487;-66
2024/01/27 01:03:39;;;;;;;24.15;4.82;;;4.00;99.90;;;;;;5004112;28;20700;-66
2024/01/27 01:06:05;;;;;;;22.08;3.05;;;4.00;99.90;;;;;;5022926;28;20371;-66
2024/01/27 01:08:32;;;;;;;28.50;3.88;;;3.90;99.90;;;;;;5019986;28;20049;-67
2024/01/27 01:10:57;;;;;;;23.65;3.35;;;4.00;99.90;;;;;;5021979;28;20124;-66
2024/01/27 01:13:23;;;;;;;27.33;3.50;;;3.90;99.90;;;;;;5022214;28;20840;-67
2024/01/27 01:15:49;;;;;;;25.17;3.15;;;3.90;99.90;;;;;;5023092;28;20365;-66
2024/01/27 01:18:15;;;;;;;26.70;3.25;;;4.70;99.90;;;;;;5020494;28;20041;-66
2024/01/27 01:20:40;;;;;;;21.60;4.68;;;3.90;99.90;;;;;;5019700;28;20442;-66
2024/01/27 01:23:06;;;;;;;16.15;2.72;;;3.90;99.90;;;;;;5021725;28;20053;-66
2024/01/27 01:25:32;;;;;;;26.38;3.20;;;4.00;99.90;;;;;;5019765;28;20065;-67
2024/01/27 01:27:57;;;;;;;26.95;3.00;;;4.00;99.90;;;;;;5021749;28;20391;-67
2024/01/27 01:30:23;;;;;;;26.40;3.83;;;3.90;99.90;;;;;;5020089;28;20033;-67
2024/01/27 01:32:50;;;;;;;24.25;2.85;;;3.90;99.90;;;;;;5020362;28;20041;-66
2024/01/27 01:35:16;;;;;;;18.83;3.03;;;4.00;99.90;;;;;;5018024;28;20128;-67
2024/01/27 01:37:42;;;;;;;20.63;3.10;;;3.90;99.90;;;;;;5020435;28;20132;-67
2024/01/27 01:40:08;;;;;;;22.65;3.72;;;3.90;99.90;;;;;;5020437;28;20394;-68
2024/01/27 01:42:34;;;;;;;24.73;3.38;;;3.90;99.90;;;;;;5020666;28;20045;-67
2024/01/27 01:44:59;;;;;;;23.45;2.80;;;3.90;99.90;;;;;;5021363;28;20046;-67
2024/01/27 01:47:25;;;;;;;21.42;3.67;;;4.00;99.90;;;;;;5021362;28;20116;-67
2024/01/27 01:49:53;;;;;;;25.40;3.08;;;3.90;99.90;;;;;;5022061;28;20423;-68
2024/01/27 01:52:21;;;;;;;20.50;2.65;;;3.90;99.90;;;;;;5016893;28;20184;-67
2024/01/27 01:54:53;;;;;;;22.23;3.22;;;4.00;99.90;;;;;;5022315;28;20426;-68
2024/01/27 01:57:19;;;;;;;16.50;2.60;;;3.90;99.90;;;;;;5022647;28;20041;-68
2024/01/27 01:59:45;;;;;;;23.88;3.13;;;4.10;99.90;;;;;;5020399;28;20379;-68
2024/01/27 02:02:12;;;;;;;19.75;2.55;;;3.80;99.90;;;;;;5019857;28;20652;-68
2024/01/27 02:04:45;;;;;;;17.70;2.70;;;4.10;99.90;;;;;;5019281;28;20050;-68
2024/01/27 02:07:11;;;;;;;20.42;3.30;;;3.90;99.90;;;;;;5042774;28;20052;-68
2024/01/27 02:09:37;;;;;;;21.85;3.08;;;4.60;99.90;;;;;;5003801;28;20041;-68
2024/01/27 02:12:03;;;;;;;22.98;3.20;;;3.80;99.90;;;;;;5019430;28;20124;-67
2024/01/27 02:14:30;;;;;;;22.50;3.17;;;3.70;99.90;;;;;;5019416;28;20045;-68
2024/01/27 02:16:56;;;;;;;15.63;2.88;;;3.70;99.90;;;;;;5002591;28;20042;-68
2024/01/27 02:19:22;;;;;;;23.75;3.25;;;3.70;99.90;;;;;;5002483;28;20065;-69
2024/01/27 02:21:48;;;;;;;33.15;3.25;;;3.70;99.90;;;;;;5003954;28;20187;-66
2024/01/27 02:24:13;;;;;;;23.63;3.55;;;3.70;99.90;;;;;;5019715;28;20038;-68
2024/01/27 02:26:39;;;;;;;27.45;3.50;;;3.60;99.90;;;;;;5004996;28;20049;-66
2024/01/27 02:29:05;;;;;;;17.63;3.42;;;3.60;99.90;;;;;;5003709;28;20045;-71
2024/01/27 02:31:31;;;;;;;21.90;3.15;;;3.60;99.90;;;;;;5020848;28;20041;-67
2024/01/27 02:33:56;;;;;;;21.23;2.80;;;3.70;99.90;;;;;;5019545;28;20053;-66
2024/01/27 02:36:22;;;;;;;18.35;3.00;;;3.60;99.90;;;;;;5020087;28;20038;-66
2024/01/27 02:38:48;;;;;;;21.13;3.53;;;3.60;99.90;;;;;;5021368;28;20518;-67
2024/01/27 02:41:14;;;;;;;28.98;3.22;;;3.60;99.90;;;;;;5003554;28;20037;-66
2024/01/27 02:43:40;;;;;;;23.10;2.85;;;3.60;99.90;;;;;;5020158;28;20053;-67
2024/01/27 02:46:10;;;;;;;19.25;3.25;;;3.60;99.90;;;;;;5017577;28;20049;-66
2024/01/27 02:48:36;;;;;;;24.48;2.97;;;3.60;99.90;;;;;;5003711;28;20067;-66
2024/01/27 02:51:05;;;;;;;17.25;3.20;;;3.60;99.90;;;;;;5019682;28;20068;-66
2024/01/27 02:53:30;;;;;;;18.60;2.67;;;3.60;99.90;;;;;;5034462;28;20045;-67
2024/01/27 02:55:56;;;;;;;20.83;2.92;;;3.50;99.90;;;;;;5019373;28;20099;-67
2024/01/27 02:58:22;;;;;;;15.88;2.33;;;3.50;99.90;;;;;;5019331;28;20039;-66
2024/01/27 03:00:48;;;;;;;20.33;3.25;;;4.30;99.90;;;;;;5019982;28;20080;-66
2024/01/27 03:03:14;;;;;;;23.27;2.90;;;3.50;99.90;;;;;;5018194;28;20045;-66
2024/01/27 03:05:40;;;;;;;18.77;3.13;;;3.50;99.90;;;;;;5020095;28;20387;-66
2024/01/27 03:08:06;;;;;;;21.67;2.22;;;3.50;99.90;;;;;;5020597;28;20037;-66
2024/01/27 03:10:32;;;;;;;22.00;3.38;;;3.50;99.90;;;;;;5019685;28;20438;-67
2024/01/27 03:12:58;;;;;;;23.55;2.80;;;3.50;99.90;;;;;;5018974;28;20044;-66
2024/01/27 03:15:23;;;;;;;17.08;2.60;;;3.50;99.90;;;;;;5018631;28;20039;-66
2024/01/27 03:17:49;;;;;;;18.42;2.50;;;3.40;99.90;;;;;;5020293;28;20053;-67
2024/01/27 03:20:15;;;;;;;15.27;2.20;;;3.50;99.90;;;;;;5019651;28;20049;-66
2024/01/27 03:22:41;;;;;;;16.55;3.50;;;3.50;99.90;;;;;;5019393;28;20077;-66
2024/01/27 03:25:08;;;;;;;22.02;3.40;;;3.50;99.90;;;;;;5002831;28;20053;-66
2024/01/27 03:27:35;;;;;;;18.58;3.33;;;3.50;99.90;;;;;;5020611;28;20049;-66
2024/01/27 03:30:02;;;;;;;19.38;2.53;;;3.50;99.90;;;;;;5019359;28;20056;-66
2024/01/27 03:32:27;;;;;;;21.33;2.80;;;3.50;99.90;;;;;;5018620;28;20049;-66
2024/01/27 03:34:53;;;;;;;22.10;2.70;;;3.50;99.90;;;;;;5021197;28;20085;-66
2024/01/27 03:37:22;;;;;;;19.58;2.95;;;3.70;99.90;;;;;;5020908;28;20495;-66
2024/01/27 03:39:48;;;;;;;19.98;3.13;;;3.50;99.90;;;;;;5020457;28;20084;-66
2024/01/27 03:42:14;;;;;;;20.40;2.70;;;3.50;99.90;;;;;;5020935;28;20492;-66
2024/01/27 03:44:39;;;;;;;24.70;2.88;;;3.50;99.90;;;;;;5019591;28;20132;-66
2024/01/27 03:47:05;;;;;;;18.90;2.35;;;3.40;99.90;;;;;;5019643;28;20081;-66
2024/01/27 03:49:31;;;;;;;17.95;3.40;;;3.50;99.90;;;;;;5021832;28;20049;-66
2024/01/27 03:51:56;;;;;;;14.65;2.65;;;3.40;99.90;;;;;;5022666;28;20052;-66
2024/01/27 03:54:22;;;;;;;18.63;2.83;;;3.70;99.90;;;;;;5023219;28;20041;-66
2024/01/27 03:56:48;;;;;;;24.83;3.35;;;3.40;99.90;;;;;;5023244;28;20498;-66
2024/01/27 03:59:13;;;;;;;17.42;2.40;;;3.40;99.90;;;;;;5023137;28;20131;-66
2024/01/27 04:01:39;;;;;;;24.60;3.10;;;3.40;99.90;;;;;;5022802;28;20585;-66
2024/01/27 04:04:05;;;;;;;24.20;3.67;;;4.30;99.90;;;;;;5021898;28;20134;-66
2024/01/27 04:06:37;;;;;;;18.23;3.33;;;3.50;99.90;;;;;;5020970;28;20490;-66
2024/01/27 04:09:03;;;;;;;17.75;2.67;;;3.40;99.90;;;;;;5022782;28;20042;-66
2024/01/27 04:11:29;;;;;;;13.63;3.10;;;3.40;99.90;;;;;;5024611;28;20612;-66
2024/01/27 04:13:54;;;;;;;17.85;2.33;;;3.30;99.90;;;;;;5023953;28;20045;-66
2024/01/27 04:16:20;;;;;;;24.45;3.28;;;3.50;99.90;;;;;;5022030;28;20391;-66
2024/01/27 04:18:46;;;;;;;16.27;2.70;;;3.30;99.90;;;;;;5022942;28;20394;-65
2024/01/27 04:21:12;;;;;;;22.42;4.10;;;3.90;99.90;;;;;;5022271;28;20037;-66
2024/01/27 04:23:38;;;;;;;23.27;4.00;;;3.30;99.90;;;;;;5022424;28;20536;-65
2024/01/27 04:26:06;;;;;;;12.10;3.13;;;3.30;99.90;;;;;;5022388;28;20464;-66
2024/01/27 04:28:32;;;;;;;19.02;2.88;;;3.30;99.90;;;;;;5022545;28;20052;-65
2024/01/27 04:30:57;;;;;;;25.50;3.72;;;3.30;99.90;;;;;;5021809;28;20037;-66
2024/01/27 04:33:23;;;;;;;25.30;3.35;;;3.30;99.90;;;;;;5020990;28;20044;-66
2024/01/27 04:35:49;;;;;;;23.73;3.20;;;3.30;99.90;;;;;;5021946;28;20668;-66
2024/01/27 04:38:14;;;;;;;25.00;2.90;;;3.30;99.90;;;;;;5023197;28;20044;-66
2024/01/27 04:40:40;;;;;;;29.63;3.55;;;3.30;99.90;;;;;;5022670;28;20247;-66
2024/01/27 04:43:06;;;;;;;22.98;3.90;;;3.30;99.90;;;;;;5022433;28;20052;-66
2024/01/27 04:45:31;;;;;;;18.10;3.08;;;3.30;99.90;;;;;;5022349;28;20041;-66
2024/01/27 04:47:57;;;;;;;20.20;3.28;;;3.30;99.90;;;;;;5022026;28;20122;-65
2024/01/27 04:50:23;;;;;;;29.42;2.90;;;3.30;99.90;;;;;;5021224;28;20123;-65
2024/01/27 04:52:49;;;;;;;23.48;3.17;;;3.30;99.90;;;;;;5022789;28;20526;-66
2024/01/27 04:55:14;;;;;;;22.73;3.25;;;3.30;99.90;;;;;;5021836;28;20091;-66
2024/01/27 04:57:40;;;;;;;22.00;3.03;;;3.30;99.90;;;;;;5021994;28;20056;-66
2024/01/27 05:00:11;;;;;;;22.02;3.60;;;3.30;99.90;;;;;;5022504;28;20053;-66
2024/01/27 05:02:40;;;;;;;23.67;3.25;;;3.30;99.90;;;;;;5022378;28;20056;-66
2024/01/27 05:05:07;;;;;;;19.48;3.38;;;3.20;99.90;;;;;;5020381;28;20053;-66
2024/01/27 05:07:32;;;;;;;21.25;3.33;;;3.70;99.90;;;;;;5020827;28;20084;-68
2024/01/27 05:09:58;;;;;;;19.25;3.33;;;3.20;99.90;;;;;;5020217;28;20049;-67
2024/01/27 05:12:24;;;;;;;19.75;3.80;;;3.20;99.90;;;;;;5037891;28;20057;-67
2024/01/27 05:14:53;;;;;;;20.80;3.47;;;3.30;99.90;;;;;;5020803;28;20052;-68
2024/01/27 05:17:18;;;;;;;16.40;2.47;;;3.20;99.90;;;;;;5020895;28;20502;-68
2024/01/27 05:19:44;;;;;;;22.73;2.50;;;3.20;99.90;;;;;;5022022;28;20053;-67
2024/01/27 05:22:09;;;;;;;19.52;2.70;;;3.20;99.90;;;;;;5004733;28;20045;-67
2024/01/27 05:24:35;;;;;;;21.00;2.55;;;3.20;99.90;;;;;;5021709;28;20041;-67
2024/01/27 05:27:01;;;;;;;30.05;3.58;;;3.30;99.90;;;;;;5021348;28;20632;-67
2024/01/27 05:29:28;;;;;;;21.80;2.63;;;3.20;99.90;;;;;;5020817;28;20391;-67
2024/01/27 05:31:54;;;;;;;22.23;2.70;;;3.10;99.90;;;;;;5022539;28;20099;-67
2024/01/27 05:34:20;;;;;;;19.33;2.88;;;3.20;99.90;;;;;;5023357;28;20049;-67
2024/01/27 05:36:47;;;;;;;17.77;2.85;;;3.30;99.90;;;;;;5045659;28;20191;-67
2024/01/27 05:39:14;;;;;;;23.58;3.47;;;3.10;99.90;;;;;;5018894;28;20057;-67
2024/01/27 05:41:39;;;;;;;22.63;2.72;;;3.10;99.90;;;;;;5020867;28;20132;-67
2024/01/27 05:44:05;;;;;;;15.60;2.47;;;3.10;99.90;;;;;;5016835;28;20038;-67
2024/01/27 05:46:31;;;;;;;16.58;2.53;;;3.80;99.90;;;;;;5020242;28;20383;-67
2024/01/27 05:49:01;;;;;;;13.88;2.60;;;3.50;99.90;;;;;;5001273;28;20163;-67
2024/01/27 05:51:28;;;;;;;21.95;3.33;;;3.10;99.90;;;;;;5021127;28;20406;-67
2024/01/27 05:53:53;;;;;;;18.60;3.08;;;3.00;99.90;;;;;;5022054;28;20049;-67
2024/01/27 05:56:20;;;;;;;20.00;2.97;;;3.00;99.90;;;;;;5018673;28;20803;-67
2024/01/27 05:58:46;;;;;;;23.38;3.22;;;3.10;99.90;;;;;;5021087;28;20069;-67
2024/01/27 06:01:12;;;;;;;21.52;3.05;;;3.00;99.90;;;;;;5021469;28;20053;-67
2024/01/27 06:03:38;;;;;;;12.15;2.38;;;2.90;99.90;;;;;;5021133;28;20041;-67
2024/01/27 06:06:03;;;;;;;20.17;2.85;;;3.00;99.90;;;;;;5002959;28;20643;-67
2024/01/27 06:08:29;;;;;;;14.55;2.40;;;2.90;99.90;;;;;;5020489;28;20573;-67
2024/01/27 06:10:55;;;;;;;15.10;3.20;;;2.90;99.90;;;;;;5013122;28;20038;-67
2024/01/27 06:13:21;;;;;;;17.45;2.58;;;2.90;99.90;;;;;;5023226;28;20133;-67
2024/01/27 06:15:46;;;;;;;17.23;2.33;;;2.90;99.90;;;;;;5012988;28;20132;-67
2024/01/27 06:18:12;;;;;;;20.77;3.05;;;2.90;99.90;;;;;;5014050;28;20038;-67
2024/01/27 06:20:40;;;;;;;21.92;2.80;;;2.90;99.90;;;;;;5014021;28;20132;-66
2024/01/27 06:23:06;;;;;;;18.40;2.42;;;2.90;99.90;;;;;;5015337;28;20064;-67
2024/01/27 06:25:33;;;;;;;14.10;2.60;;;2.90;99.90;;;;;;5015051;28;20099;-67
2024/01/27 06:27:58;;;;;;;24.50;3.85;;;2.90;99.90;;;;;;5017751;28;20121;-67
2024/01/27 06:30:24;;;;;;;15.93;3.15;;;2.80;99.90;;;;;;5001088;28;20203;-67
2024/01/27 06:32:53;;;;;;;22.65;2.70;;;2.90;99.90;;;;;;5012906;28;20053;-67
2024/01/27 06:35:18;;;;;;;11.57;2.63;;;2.80;99.90;;;;;;5013939;28;20049;-66
2024/01/27 06:37:44;;;;;;;19.75;2.60;;;2.80;99.90;;;;;;5015641;28;20052;-67
2024/01/27 06:40:10;;;;;;;14.65;3.03;;;2.90;99.90;;;;;;5017408;28;20784;-67
2024/01/27 06:42:36;;;;;;;17.90;2.45;;;2.80;99.90;;;;;;5013693;28;20037;-67
2024/01/27 06:45:02;;;;;;;20.55;2.30;;;2.80;99.90;;;;;;5011607;28;22721;-67
2024/01/27 06:47:28;;;;;;;20.02;3.72;;;2.80;99.90;;;;;;5014963;28;20042;-66
2024/01/27 06:49:54;;;;;;;16.67;3.47;;;2.80;99.90;;;;;;5000392;28;20804;-67
2024/01/27 06:52:23;;;;;;;22.75;3.13;;;3.10;99.90;;;;;;5011702;28;20050;-67
2024/01/27 06:54:49;;;;;;;24.05;3.88;;;2.80;99.90;;;;;;5002762;28;20805;-67
2024/01/27 06:57:19;;;;;;;18.48;2.95;;;2.80;99.90;;;;;;4999487;28;20053;-67
2024/01/27 06:59:45;;;;;;;21.70;3.05;;;3.20;99.90;;;;;;5018788;28;20682;-67
2024/01/27 07:02:13;;;;;;;22.00;2.92;;;2.80;99.90;;;;;;4996359;28;20159;-67
2024/01/27 07:04:39;;;;;;;20.60;3.63;;;2.80;99.90;;;;;;5018148;28;20572;-67
2024/01/27 07:07:05;;;;;;;20.90;3.13;;;2.70;99.90;;;;;;5003996;28;20046;-67
2024/01/27 07:09:31;;;;;;;18.58;2.90;;;2.70;99.90;;;;;;5016347;28;20050;-67
2024/01/27 07:11:57;;;;;;;20.23;3.05;;;2.70;99.90;;;;;;5015658;28;20140;-68
2024/01/27 07:14:23;;;;;;;20.23;2.70;;;2.80;99.90;;;;;;5014822;28;20664;-67
2024/01/27 07:16:48;;;;;;;19.88;2.95;;;2.70;99.90;;;;;;5012732;28;20054;-66
2024/01/27 07:19:16;;;;;;;23.60;3.22;;;2.70;99.90;;;;;;5014912;28;20047;-67
2024/01/27 07:21:42;;;;;;;18.08;2.50;;;2.70;99.90;;;;;;5013442;28;20053;-66
2024/01/27 07:24:07;;;;;;;20.25;2.78;;;2.70;99.90;;;;;;5015205;28;20206;-68
2024/01/27 07:26:33;;;;;;;20.30;2.85;;;2.70;99.90;;;;;;5010970;28;20047;-67
2024/01/27 07:28:59;;;;;;;18.95;3.17;;;2.70;99.90;;;;;;5008701;28;20353;-66
2024/01/27 07:31:26;;;;;;;18.42;3.25;;;2.70;99.90;;;;;;5007953;28;21460;-67
2024/01/27 07:33:52;;;;;;;13.45;2.33;;;2.70;99.90;;;;;;5009062;28;20073;-68
2024/01/27 07:36:18;;;;;;;18.58;2.90;;;2.70;99.90;;;;;;5010510;28;20160;-67
2024/01/27 07:38:43;;;;;;;18.58;2.78;;;2.70;99.90;;;;;;5013630;28;20171;-67
2024/01/27 07:41:09;;;;;;;21.75;2.53;;;2.70;99.90;;;;;;4998725;28;20049;-67
2024/01/27 07:43:35;;;;;;;17.92;2.78;;;2.70;99.90;;;;;;5010223;28;20044;-67
2024/01/27 07:46:00;;;;;;;18.60;2.90;;;2.70;99.90;;;;;;5000238;28;20058;-67
2024/01/27 07:48:26;;;;;;;17.77;2.80;;;2.70;99.90;;;;;;5001430;28;20100;-67
2024/01/27 07:50:52;;;;;;;19.55;3.35;;;2.60;99.90;;;;;;4996198;28;20099;-67
2024/01/27 07:53:18;;;;;;;17.20;2.85;;;2.70;99.90;;;;;;5007290;28;20070;-67
2024/01/27 07:55:43;;;;;;;23.48;2.97;;;2.80;99.90;;;;;;5012582;28;20077;-67
2024/01/27 07:58:09;;;;;;;18.20;3.25;;;2.60;99.90;;;;;;5012753;28;20132;-67
2024/01/27 08:00:35;;;;;;;16.60;3.10;;;2.60;99.90;;;;;;5001107;28;20049;-67
2024/01/27 08:03:00;;;;;;;22.38;3.00;;;2.60;99.90;;;;;;5015920;28;20037;-67
2024/01/27 08:05:26;;;;;;;22.08;3.95;;;2.60;99.90;;;;;;5013443;28;20120;-67
2024/01/27 08:07:52;;;;;;;21.58;3.20;;;2.60;99.90;;;;;;5014495;28;20045;-67
2024/01/27 08:10:18;;;;;;;22.05;3.53;;;2.60;99.90;;;;;;5000357;28;20132;-67
2024/01/27 08:12:44;;;;;;;24.38;3.25;;;3.60;99.90;;;;;;5014378;28;20050;-67
2024/01/27 08:15:09;;;;;;;17.20;3.65;;;2.60;99.90;;;;;;5017509;28;20115;-67
2024/01/27 08:17:35;;;;;;;23.83;3.95;;;2.60;99.90;;;;;;5014151;28;20077;-67
2024/01/27 08:20:01;;;;;;;20.50;3.85;;;2.70;99.90;;;;;;5014384;28;20073;-67
2024/01/27 08:22:27;;;;;;;22.80;4.10;;;3.00;99.90;;;;;;5012203;28;20041;-67
2024/01/27 08:24:53;;;;;;;19.13;4.45;;;2.70;99.90;;;;;;5013482;28;20056;-68
2024/01/27 08:27:18;;;;;;;26.42;3.70;;;2.70;99.90;;;;;;5014543;28;20045;-67
2024/01/27 08:29:44;;;;;;;31.15;3.85;;;2.70;99.90;;;;;;5012266;28;20564;-67
2024/01/27 08:32:10;;;;;;;30.38;4.95;;;2.70;99.90;;;;;;5015479;28;20085;-67
2024/01/27 08:34:36;;;;;;;26.00;3.97;;;2.70;99.90;;;;;;5013971;28;20110;-66
2024/01/27 08:37:02;;;;;;;18.20;3.42;;;2.80;99.90;;;;;;5015825;28;20057;-67
2024/01/27 08:39:28;;;;;;;17.65;4.18;;;2.80;99.90;;;;;;5015886;28;20041;-67
2024/01/27 08:41:54;;;;;;;19.27;3.38;;;2.80;99.90;;;;;;5016652;28;20611;-66
2024/01/27 08:44:20;;;;;;;22.75;4.43;;;2.80;99.90;;;;;;5003227;28;20073;-67
2024/01/27 08:46:46;;;;;;;23.42;3.72;;;2.80;99.90;;;;;;5012071;28;20049;-67
2024/01/27 08:49:12;;;;;;;16.42;4.03;;;2.90;99.90;;;;;;5015631;28;20615;-67
2024/01/27 08:51:37;;;;;;;22.67;4.85;;;3.20;99.90;;;;;;5015076;28;21200;-67
2024/01/27 08:54:03;;;;;;;17.48;3.63;;;3.00;99.90;;;;;;5015551;28;20064;-67
2024/01/27 08:56:28;;;;;;;22.17;3.92;;;3.00;99.90;;;;;;4998907;28;20081;-67
2024/01/27 08:58:54;;;;;;;21.17;3.70;;;3.00;99.90;;;;;;5015264;28;20499;-67
2024/01/27 09:01:23;;;;;;;22.70;4.22;;;3.00;99.90;;;;;;5013483;28;20053;-67
2024/01/27 09:03:49;;;;;;;22.15;4.82;;;3.10;99.90;;;;;;5015691;28;20042;-66
2024/01/27 09:06:15;;;;;;;29.08;5.65;;;3.10;99.90;;;;;;5011867;28;20107;-66
2024/01/27 09:08:41;;;;;;;25.08;4.93;;;3.10;99.90;;;;;;5007247;28;20152;-65
2024/01/27 09:11:07;;;;;;;24.05;4.40;;;3.20;99.90;;;;;;5004417;28;20077;-66
2024/01/27 09:13:32;;;;;;;19.55;5.25;;;3.20;99.90;;;;;;5006979;28;20252;-67
2024/01/27 09:15:59;;;;;;;26.67;5.55;;;3.30;99.90;;;;;;5010121;28;20060;-67
2024/01/27 09:18:25;;;;;;;28.17;5.00;;;3.30;99.90;;;;;;5012466;28;20048;-66
2024/01/27 09:20:51;;;;;;;22.55;5.47;;;3.40;99.90;;;;;;5015942;28;20112;-67
2024/01/27 09:23:16;;;;;;;21.95;4.72;;;3.40;99.90;;;;;;5010967;28;20037;-66
2024/01/27 09:25:42;;;;;;;27.83;5.20;;;3.40;99.90;;;;;;4998289;28;20084;-66
2024/01/27 09:28:08;;;;;;;22.42;5.20;;;3.50;99.90;;;;;;4995441;28;20053;-66
2024/01/27 09:30:34;;;;;;;30.13;5.75;;;3.50;99.90;;;;;;5015106;28;20068;-66
2024/01/27 09:33:00;;;;;;;19.42;5.53;;;3.50;99.90;;;;;;5037782;28;20168;-66
2024/01/27 09:35:26;;;;;;;24.35;6.22;;;3.60;99.90;;;;;;4993759;28;20049;-66
2024/01/27 09:37:52;;;;;;;31.73;6.15;;;3.60;99.90;;;;;;4994792;28;20052;-66
2024/01/27 09:40:18;;;;;;;21.90;5.65;;;3.70;99.90;;;;;;5012365;28;20042;-66
2024/01/27 09:42:52;;;;;;;20.38;4.97;;;3.70;99.90;;;;;;5012163;28;20111;-66
2024/01/27 09:45:19;;;;;;;32.25;6.70;;;3.80;99.90;;;;;;5015234;28;20077;-66
2024/01/27 09:47:45;;;;;;;25.67;5.90;;;4.60;99.90;;;;;;5009440;28;20045;-66
2024/01/27 09:50:12;;;;;;;18.92;5.82;;;3.90;99.90;;;;;;5012873;28;20148;-66
2024/01/27 09:52:38;;;;;;;24.65;6.00;;;3.90;99.90;;;;;;5011716;28;20501;-66
2024/01/27 09:55:04;;;;;;;24.88;6.05;;;3.90;99.90;;;;;;5016101;28;20033;-66
2024/01/27 09:57:30;;;;;;;23.65;5.63;;;4.00;99.90;;;;;;4998210;28;20076;-67
2024/01/27 09:59:58;;;;;;;19.80;6.13;;;4.20;99.90;;;;;;5002005;28;21704;-66
2024/01/27 10:02:25;;;;;;;21.33;5.80;;;4.10;99.90;;;;;;5004441;28;20505;-66
2024/01/27 10:04:51;;;;;;;28.45;6.90;;;4.10;99.90;;;;;;5003385;28;20049;-67
2024/01/27 10:07:17;;;;;;;26.80;6.53;;;4.20;99.90;;;;;;5000912;28;20818;-66
2024/01/27 10:09:43;;;;;;;27.10;6.20;;;4.20;99.90;;;;;;5008757;28;20041;-67
2024/01/27 10:12:12;;;;;;;24.38;7.10;;;4.30;99.90;;;;;;4996880;28;20042;-66
2024/01/27 10:14:44;;;;;;;25.88;6.68;;;4.30;99.90;;;;;;5005812;28;20038;-66
2024/01/27 10:17:29;;;;;;;20.48;6.07;;;4.40;99.90;;;;;;4995518;28;20061;-66
2024/01/27 10:20:05;;;;;;;20.23;5.15;;;4.40;99.90;;;;;;5005458;28;20111;-66
2024/01/27 10:22:49;;;;;;;36.47;6.80;;;4.50;99.90;;;;;;5013834;28;20471;-66
2024/01/27 10:25:16;;;;;;;24.83;5.15;;;4.50;99.90;;;;;;5005134;28;20060;-67
2024/01/27 10:27:42;;;;;;;29.13;5.78;;;4.60;99.90;;;;;;4986091;28;20048;-66
2024/01/27 10:30:17;;;;;;;22.08;6.13;;;4.60;99.90;;;;;;5000458;28;20052;-66
2024/01/27 10:32:42;;;;;;;26.77;5.40;;;4.70;99.90;;;;;;5014092;28;20045;-66
2024/01/27 10:35:08;;;;;;;27.95;5.75;;;4.80;99.90;;;;;;5006041;28;20064;-66
2024/01/27 10:37:35;;;;;;;27.88;5.70;;;4.80;99.90;;;;;;4997663;28;20057;-66
2024/01/27 10:40:09;;;;;;;17.52;5.32;;;4.80;99.90;;;;;;5004075;28;20092;-66
2024/01/27 10:42:36;;;;;;;24.30;5.78;;;4.90;99.90;;;;;;5011867;28;20080;-66
2024/01/27 10:45:04;;;;;;;21.45;5.55;;;4.90;99.90;;;;;;4995011;28;20781;-66
2024/01/27 10:47:31;;;;;;;22.85;5.47;;;5.00;99.90;;;;;;5005123;28;20442;-66
2024/01/27 10:49:59;;;;;;;20.23;5.03;;;5.00;99.90;;;;;;4996756;28;20192;-66
2024/01/27 10:52:28;;;;;;;29.42;6.32;;;5.10;99.90;;;;;;5000990;28;20045;-66
2024/01/27 10:55:03;;;;;;;27.27;6.40;;;5.10;99.90;;;;;;5009493;28;20054;-67
2024/01/27 10:57:33;;;;;;;23.40;4.72;;;5.20;99.90;;;;;;5006893;28;20169;-68
2024/01/27 11:00:01;;;;;;;24.77;4.82;;;5.20;99.90;;;;;;5010086;28;20046;-67
2024/01/27 11:02:32;;;;;;;23.33;5.68;;;5.30;99.90;;;;;;4998908;28;20698;-66
2024/01/27 11:05:00;;;;;;;20.77;4.97;;;5.30;99.90;;;;;;4990123;28;20049;-66
2024/01/27 11:07:28;;;;;;;30.17;5.68;;;5.40;99.90;;;;;;5010769;28;20053;-67
2024/01/27 11:09:54;;;;;;;20.45;4.57;;;5.40;99.90;;;;;;5009521;28;20060;-66
2024/01/27 11:12:22;;;;;;;19.52;5.18;;;5.40;99.90;;;;;;5007964;28;20045;-67
2024/01/27 11:14:48;;;;;;;27.50;5.03;;;6.00;99.90;;;;;;5019280;28;20041;-66
2024/01/27 11:17:16;;;;;;;28.05;5.53;;;5.50;99.90;;;;;;5012720;28;20734;-66
2024/01/27 11:19:41;;;;;;;21.30;4.32;;;5.60;99.90;;;;;;5018829;28;20099;-66
2024/01/27 11:22:07;;;;;;;20.02;3.92;;;5.60;99.90;;;;;;5012594;28;20065;-66
2024/01/27 11:24:33;;;;;;;21.65;4.63;;;5.70;99.90;;;;;;5017689;28;20488;-66
2024/01/27 11:27:03;;;;;;;22.58;4.63;;;5.80;99.90;;;;;;5014676;28;20045;-67
2024/01/27 11:29:31;;;;;;;28.50;5.07;;;5.90;99.90;;;;;;5016349;28;20837;-67
2024/01/27 11:31:59;;;;;;;24.83;4.50;;;5.90;99.90;;;;;;5015133;28;20042;-67
2024/01/27 11:34:25;;;;;;;27.73;4.63;;;6.60;99.90;;;;;;5017701;28;20038;-66
2024/01/27 11:36:51;;;;;;;18.60;4.20;;;6.10;99.90;;;;;;5019170;28;20045;-66
2024/01/27 11:39:27;;;;;;;23.75;4.57;;;6.10;99.90;;;;;;5003185;28;20881;-66
2024/01/27 11:41:53;;;;;;;30.48;4.07;;;6.20;99.90;;;;;;5016063;28;20059;-66
2024/01/27 11:44:20;;;;;;;17.55;4.03;;;6.30;99.90;;;;;;5001856;28;20045;-67
2024/01/27 11:46:48;;;;;;;29.27;4.20;;;6.30;99.90;;;;;;4998084;28;20072;-67
2024/01/27 11:49:17;;;;;;;21.40;3.80;;;6.30;99.90;;;;;;5016914;28;20042;-67
2024/01/27 11:51:44;;;;;;;23.27;3.75;;;6.40;99.90;;;;;;5002000;28;20130;-67
2024/01/27 11:54:09;;;;;;;23.65;4.43;;;6.50;99.90;;;;;;5009149;28;20049;-67
2024/01/27 11:56:35;;;;;;;26.23;3.95;;;6.50;99.90;;;;;;5013752;28;20123;-67
2024/01/27 11:59:01;;;;;;;32.40;4.65;;;6.60;99.90;;;;;;4998403;28;20049;-66
2024/01/27 12:01:27;;;;;;;22.75;4.35;;;6.60;99.90;;;;;;4997123;28;20042;-67
2024/01/27 12:03:53;;;;;;;25.33;3.63;;;6.70;99.90;;;;;;5016275;28;20033;-68
2024/01/27 12:06:19;;;;;;;19.85;3.42;;;6.70;99.90;;;;;;5010365;28;20046;-67
2024/01/27 12:08:46;;;;;;;22.85;3.85;;;7.10;99.90;;;;;;5016238;28;20053;-67
2024/01/27 12:11:14;;;;;;;16.20;3.70;;;6.80;99.90;;;;;;5011044;28;20054;-68
2024/01/27 12:13:40;;;;;;;19.67;3.97;;;6.90;99.90;;;;;;5014892;28;20145;-69
2024/01/27 12:16:07;;;;;;;20.25;3.75;;;6.90;99.90;;;;;;5006112;28;20049;-69
2024/01/27 12:18:32;;;;;;;32.22;4.75;;;6.90;99.90;;;;;;5011193;28;20199;-69
2024/01/27 12:20:58;;;;;;;31.83;3.97;;;7.00;99.90;;;;;;4999999;28;20046;-69
2024/01/27 12:23:24;;;;;;;20.15;3.92;;;7.00;99.90;;;;;;5019768;28;20048;-69
2024/01/27 12:25:54;;;;;;;27.95;4.45;;;7.10;99.90;;;;;;5016776;28;20045;-70
2024/01/27 12:28:20;;;;;;;24.42;3.97;;;7.10;99.90;;;;;;5015518;28;20081;-69
2024/01/27 12:30:47;;;;;;;24.27;4.03;;;7.10;99.90;;;;;;5002634;28;20147;-69
2024/01/27 12:33:13;;;;;;;22.77;3.95;;;7.20;99.90;;;;;;5015015;28;20045;-69
2024/01/27 12:35:39;;;;;;;18.15;3.35;;;7.10;99.90;;;;;;5012023;28;20517;-69
2024/01/27 12:38:07;;;;;;;15.73;3.22;;;7.20;99.90;;;;;;5009748;28;20049;-70
2024/01/27 12:40:33;;;;;;;30.60;3.83;;;7.20;99.90;;;;;;5003558;28;20037;-70
2024/01/27 12:42:59;;;;;;;21.30;3.42;;;7.20;99.90;;;;;;5019766;28;20513;-70